sensor_id;sensor_type;location;lat;lon;timestamp;temperature;humidity
27759;DHT22;15148;48.972;12.794;2023-03-11T00:01:31;2.90;99.90
27759;DHT22;15148;48.972;12.794;2023-03-11T00:06:36;2.80;99.90
27759;DHT22;15148;48.972;12.794;2023-03-11T00:11:37;2.70;99.90
27759;DHT22;15148;48.972;12.794;2023-03-11T00:16:39;2.50;99.90
27759;DHT22;15148;48.972;12.794;2023-03-11T00:21:41;2.50;99.90
27759;DHT22;15148;48.972;12.794;2023-03-11T00:26:43;2.40;99.90
27759;DHT22;15148;48.972;12.794;2023-03-11T00:31:45;2.40;99.90
27759;DHT22;15148;48.972;12.794;2023-03-11T00:36:46;2.40;99.90
27759;DHT22;15148;48.972;12.794;2023-03-11T00:41:48;2.40;99.90
27759;DHT22;15148;48.972;12.794;2023-03-11T00:46:51;2.50;99.90
27759;DHT22;15148;48.972;12.794;2023-03-11T00:51:53;2.50;99.90
27759;DHT22;15148;48.972;12.794;2023-03-11T00:56:55;2.50;99.90
27759;DHT22;15148;48.972;12.794;2023-03-11T01:01:57;2.50;99.90
27759;DHT22;15148;48.972;12.794;2023-03-11T01:07:00;2.50;99.90
27759;DHT22;15148;48.972;12.794;2023-03-11T01:12:04;2.50;99.90
27759;DHT22;15148;48.972;12.794;2023-03-11T01:17:06;2.40;99.90
27759;DHT22;15148;48.972;12.794;2023-03-11T01:22:09;2.40;99.90
27759;DHT22;15148;48.972;12.794;2023-03-11T01:27:11;2.40;99.90
27759;DHT22;15148;48.972;12.794;2023-03-11T01:32:13;2.40;99.90
27759;DHT22;15148;48.972;12.794;2023-03-11T01:37:15;2.30;99.90
27759;DHT22;15148;48.972;12.794;2023-03-11T01:42:17;2.30;99.90
27759;DHT22;15148;48.972;12.794;2023-03-11T01:47:37;2.20;99.90
27759;DHT22;15148;48.972;12.794;2023-03-11T01:52:41;2.30;99.90
27759;DHT22;15148;48.972;12.794;2023-03-11T01:57:45;2.20;99.90
27759;DHT22;15148;48.972;12.794;2023-03-11T02:02:51;2.10;99.90
27759;DHT22;15148;48.972;12.794;2023-03-11T02:07:54;2.10;99.90
27759;DHT22;15148;48.972;12.794;2023-03-11T02:13:02;2.10;99.90
27759;DHT22;15148;48.972;12.794;2023-03-11T02:18:06;2.10;99.90
27759;DHT22;15148;48.972;12.794;2023-03-11T02:23:10;2.10;99.90
27759;DHT22;15148;48.972;12.794;2023-03-11T02:28:13;2.10;99.90
27759;DHT22;15148;48.972;12.794;2023-03-11T02:33:17;2.10;99.90
27759;DHT22;15148;48.972;12.794;2023-03-11T02:38:22;2.10;99.90
27759;DHT22;15148;48.972;12.794;2023-03-11T02:43:42;2.00;99.90
27759;DHT22;15148;48.972;12.794;2023-03-11T02:48:50;2.00;99.90
27759;DHT22;15148;48.972;12.794;2023-03-11T02:53:57;2.00;99.90
27759;DHT22;15148;48.972;12.794;2023-03-11T02:59:02;2.00;99.90
27759;DHT22;15148;48.972;12.794;2023-03-11T03:04:11;2.00;99.90
27759;DHT22;15148;48.972;12.794;2023-03-11T03:09:13;2.00;99.90
27759;DHT22;15148;48.972;12.794;2023-03-11T03:14:15;2.00;99.90
27759;DHT22;15148;48.972;12.794;2023-03-11T03:19:17;2.00;99.90
27759;DHT22;15148;48.972;12.794;2023-03-11T03:24:19;2.00;99.90
27759;DHT22;15148;48.972;12.794;2023-03-11T03:29:22;2.00;99.90
27759;DHT22;15148;48.972;12.794;2023-03-11T03:34:26;2.10;99.90
27759;DHT22;15148;48.972;12.794;2023-03-11T03:39:28;1.90;99.90
27759;DHT22;15148;48.972;12.794;2023-03-11T03:44:32;2.00;99.90
27759;DHT22;15148;48.972;12.794;2023-03-11T03:49:34;2.00;99.90
27759;DHT22;15148;48.972;12.794;2023-03-11T03:54:36;1.90;99.90
27759;DHT22;15148;48.972;12.794;2023-03-11T03:59:39;1.80;99.90
27759;DHT22;15148;48.972;12.794;2023-03-11T04:04:40;1.80;99.90
27759;DHT22;15148;48.972;12.794;2023-03-11T04:09:43;1.80;99.90
27759;DHT22;15148;48.972;12.794;2023-03-11T04:14:46;1.80;99.90
27759;DHT22;15148;48.972;12.794;2023-03-11T04:19:49;1.80;99.90
27759;DHT22;15148;48.972;12.794;2023-03-11T04:24:51;2.00;99.90
27759;DHT22;15148;48.972;12.794;2023-03-11T04:29:53;1.90;99.90
27759;DHT22;15148;48.972;12.794;2023-03-11T04:34:55;1.80;99.90
27759;DHT22;15148;48.972;12.794;2023-03-11T04:39:57;1.70;99.90
27759;DHT22;15148;48.972;12.794;2023-03-11T04:44:59;1.70;99.90
27759;DHT22;15148;48.972;12.794;2023-03-11T04:50:05;1.80;99.90
27759;DHT22;15148;48.972;12.794;2023-03-11T04:55:08;1.90;99.90
27759;DHT22;15148;48.972;12.794;2023-03-11T05:00:14;1.80;99.90
27759;DHT22;15148;48.972;12.794;2023-03-11T05:05:20;1.70;99.90
27759;DHT22;15148;48.972;12.794;2023-03-11T05:10:23;1.70;99.90
27759;DHT22;15148;48.972;12.794;2023-03-11T05:15:28;1.70;99.90
27759;DHT22;15148;48.972;12.794;2023-03-11T05:20:34;1.70;99.90
27759;DHT22;15148;48.972;12.794;2023-03-11T05:25:37;1.70;99.90
27759;DHT22;15148;48.972;12.794;2023-03-11T05:30:39;1.80;99.90
27759;DHT22;15148;48.972;12.794;2023-03-11T05:35:42;1.70;99.90
27759;DHT22;15148;48.972;12.794;2023-03-11T05:40:44;1.70;99.90
27759;DHT22;15148;48.972;12.794;2023-03-11T05:45:46;1.70;99.90
27759;DHT22;15148;48.972;12.794;2023-03-11T05:50:48;1.60;99.90
27759;DHT22;15148;48.972;12.794;2023-03-11T05:55:58;1.60;99.90
27759;DHT22;15148;48.972;12.794;2023-03-11T06:01:07;1.50;99.90
27759;DHT22;15148;48.972;12.794;2023-03-11T06:06:11;1.60;99.90
27759;DHT22;15148;48.972;12.794;2023-03-11T06:11:14;1.60;99.90
27759;DHT22;15148;48.972;12.794;2023-03-11T06:16:16;1.40;99.90
27759;DHT22;15148;48.972;12.794;2023-03-11T06:21:20;1.40;99.90
27759;DHT22;15148;48.972;12.794;2023-03-11T06:26:23;1.30;99.90
27759;DHT22;15148;48.972;12.794;2023-03-11T06:31:27;1.30;99.90
27759;DHT22;15148;48.972;12.794;2023-03-11T06:36:36;1.30;99.90
27759;DHT22;15148;48.972;12.794;2023-03-11T06:41:38;1.20;99.90
27759;DHT22;15148;48.972;12.794;2023-03-11T06:46:42;1.20;99.90
27759;DHT22;15148;48.972;12.794;2023-03-11T06:51:44;1.20;99.90
27759;DHT22;15148;48.972;12.794;2023-03-11T06:56:48;1.30;99.90
27759;DHT22;15148;48.972;12.794;2023-03-11T07:01:50;1.20;99.90
27759;DHT22;15148;48.972;12.794;2023-03-11T07:06:52;1.20;99.90
27759;DHT22;15148;48.972;12.794;2023-03-11T07:11:57;1.20;99.90
27759;DHT22;15148;48.972;12.794;2023-03-11T07:17:04;1.10;99.90
27759;DHT22;15148;48.972;12.794;2023-03-11T07:22:11;1.10;99.90
27759;DHT22;15148;48.972;12.794;2023-03-11T07:27:14;1.00;99.90
27759;DHT22;15148;48.972;12.794;2023-03-11T07:32:16;1.00;99.90
27759;DHT22;15148;48.972;12.794;2023-03-11T07:37:18;1.10;99.90
27759;DHT22;15148;48.972;12.794;2023-03-11T07:42:20;1.10;99.90
27759;DHT22;15148;48.972;12.794;2023-03-11T07:47:22;1.20;99.90
27759;DHT22;15148;48.972;12.794;2023-03-11T07:52:29;1.20;99.90
27759;DHT22;15148;48.972;12.794;2023-03-11T07:57:31;1.20;99.90
27759;DHT22;15148;48.972;12.794;2023-03-11T08:02:32;1.30;99.90
27759;DHT22;15148;48.972;12.794;2023-03-11T08:07:34;1.40;99.90
27759;DHT22;15148;48.972;12.794;2023-03-11T08:12:36;1.50;99.90
27759;DHT22;15148;48.972;12.794;2023-03-11T08:17:38;1.50;99.90
27759;DHT22;15148;48.972;12.794;2023-03-11T08:22:40;1.60;99.90
27759;DHT22;15148;48.972;12.794;2023-03-11T08:27:58;1.60;99.90
27759;DHT22;15148;48.972;12.794;2023-03-11T08:32:59;1.50;99.90
27759;DHT22;15148;48.972;12.794;2023-03-11T08:38:02;1.60;99.90
27759;DHT22;15148;48.972;12.794;2023-03-11T08:43:03;1.50;99.90
27759;DHT22;15148;48.972;12.794;2023-03-11T08:48:06;1.20;99.90
27759;DHT22;15148;48.972;12.794;2023-03-11T08:53:08;1.00;99.90
27759;DHT22;15148;48.972;12.794;2023-03-11T08:58:10;0.90;99.90
27759;DHT22;15148;48.972;12.794;2023-03-11T09:03:12;0.90;99.90
27759;DHT22;15148;48.972;12.794;2023-03-11T09:08:14;0.70;99.90
27759;DHT22;15148;48.972;12.794;2023-03-11T09:13:16;0.50;99.90
27759;DHT22;15148;48.972;12.794;2023-03-11T09:18:18;0.60;99.90
27759;DHT22;15148;48.972;12.794;2023-03-11T09:23:20;0.50;99.90
27759;DHT22;15148;48.972;12.794;2023-03-11T09:28:22;0.50;99.90
27759;DHT22;15148;48.972;12.794;2023-03-11T09:33:24;0.60;99.90
27759;DHT22;15148;48.972;12.794;2023-03-11T09:38:27;0.70;99.90
27759;DHT22;15148;48.972;12.794;2023-03-11T09:43:50;0.60;99.90
27759;DHT22;15148;48.972;12.794;2023-03-11T09:54:12;0.60;99.90
27759;DHT22;15148;48.972;12.794;2023-03-11T09:59:18;0.70;99.90
27759;DHT22;15148;48.972;12.794;2023-03-11T10:04:26;0.90;99.90
27759;DHT22;15148;48.972;12.794;2023-03-11T10:09:42;1.10;99.90
27759;DHT22;15148;48.972;12.794;2023-03-11T10:31:03;1.90;99.90
27759;DHT22;15148;48.972;12.794;2023-03-11T10:36:11;2.00;99.90
27759;DHT22;15148;48.972;12.794;2023-03-11T10:41:58;2.10;99.90
27759;DHT22;15148;48.972;12.794;2023-03-11T10:46:51;2.20;99.90
27759;DHT22;15148;48.972;12.794;2023-03-11T10:51:53;2.40;99.90
27759;DHT22;15148;48.972;12.794;2023-03-11T11:03:10;2.80;99.90
27759;DHT22;15148;48.972;12.794;2023-03-11T11:08:01;3.00;99.90
27759;DHT22;15148;48.972;12.794;2023-03-11T11:13:17;2.90;99.90
27759;DHT22;15148;48.972;12.794;2023-03-11T11:23:39;3.10;99.90
27759;DHT22;15148;48.972;12.794;2023-03-11T11:28:42;3.10;99.90
27759;DHT22;15148;48.972;12.794;2023-03-11T11:33:50;3.00;99.90
27759;DHT22;15148;48.972;12.794;2023-03-11T11:38:53;3.00;99.90
27759;DHT22;15148;48.972;12.794;2023-03-11T11:43:59;3.10;99.90
27759;DHT22;15148;48.972;12.794;2023-03-11T11:49:24;3.20;99.90
27759;DHT22;15148;48.972;12.794;2023-03-11T11:55:07;3.20;99.90
27759;DHT22;15148;48.972;12.794;2023-03-11T12:00:36;3.40;99.90
27759;DHT22;15148;48.972;12.794;2023-03-11T12:06:08;3.60;99.90
27759;DHT22;15148;48.972;12.794;2023-03-11T12:11:25;3.50;99.90
27759;DHT22;15148;48.972;12.794;2023-03-11T12:17:09;3.40;99.90
27759;DHT22;15148;48.972;12.794;2023-03-11T12:22:18;3.00;99.90
27759;DHT22;15148;48.972;12.794;2023-03-11T12:27:48;2.90;99.90
27759;DHT22;15148;48.972;12.794;2023-03-11T12:33:14;2.90;99.90
27759;DHT22;15148;48.972;12.794;2023-03-11T12:38:31;2.70;99.90
27759;DHT22;15148;48.972;12.794;2023-03-11T12:48:47;2.70;99.90
27759;DHT22;15148;48.972;12.794;2023-03-11T12:53:54;2.60;99.90
27759;DHT22;15148;48.972;12.794;2023-03-11T12:59:16;2.70;99.90
27759;DHT22;15148;48.972;12.794;2023-03-11T13:04:29;2.80;99.90
27759;DHT22;15148;48.972;12.794;2023-03-11T13:09:33;2.90;99.90
27759;DHT22;15148;48.972;12.794;2023-03-11T13:14:36;2.90;99.90
27759;DHT22;15148;48.972;12.794;2023-03-11T13:19:47;2.90;99.90
27759;DHT22;15148;48.972;12.794;2023-03-11T13:24:50;3.00;99.90
27759;DHT22;15148;48.972;12.794;2023-03-11T13:29:58;3.10;99.90
27759;DHT22;15148;48.972;12.794;2023-03-11T13:40:39;3.10;99.90
27759;DHT22;15148;48.972;12.794;2023-03-11T13:51:04;3.40;99.90
27759;DHT22;15148;48.972;12.794;2023-03-11T13:56:17;3.30;99.90
27759;DHT22;15148;48.972;12.794;2023-03-11T14:01:22;3.30;99.90
27759;DHT22;15148;48.972;12.794;2023-03-11T14:06:24;3.30;99.90
27759;DHT22;15148;48.972;12.794;2023-03-11T14:11:30;3.10;99.90
27759;DHT22;15148;48.972;12.794;2023-03-11T14:16:35;3.00;99.90
27759;DHT22;15148;48.972;12.794;2023-03-11T14:21:46;2.90;99.90
27759;DHT22;15148;48.972;12.794;2023-03-11T14:26:50;2.80;99.90
27759;DHT22;15148;48.972;12.794;2023-03-11T14:31:55;2.80;99.90
27759;DHT22;15148;48.972;12.794;2023-03-11T14:36:59;2.80;99.90
27759;DHT22;15148;48.972;12.794;2023-03-11T14:52:42;2.80;99.90
27759;DHT22;15148;48.972;12.794;2023-03-11T14:58:09;2.70;99.90
27759;DHT22;15148;48.972;12.794;2023-03-11T15:03:13;2.70;99.90
27759;DHT22;15148;48.972;12.794;2023-03-11T15:08:20;2.70;99.90
27759;DHT22;15148;48.972;12.794;2023-03-11T15:13:23;2.60;99.90
27759;DHT22;15148;48.972;12.794;2023-03-11T15:18:30;2.50;99.90
27759;DHT22;15148;48.972;12.794;2023-03-11T15:23:33;2.60;99.90
27759;DHT22;15148;48.972;12.794;2023-03-11T15:28:36;2.50;99.90
27759;DHT22;15148;48.972;12.794;2023-03-11T15:33:39;2.50;99.90
27759;DHT22;15148;48.972;12.794;2023-03-11T15:38:41;2.40;99.90
27759;DHT22;15148;48.972;12.794;2023-03-11T15:43:46;2.50;99.90
27759;DHT22;15148;48.972;12.794;2023-03-11T15:48:48;2.40;99.90
27759;DHT22;15148;48.972;12.794;2023-03-11T15:53:50;2.40;99.90
27759;DHT22;15148;48.972;12.794;2023-03-11T15:58:52;2.50;99.90
27759;DHT22;15148;48.972;12.794;2023-03-11T16:03:54;2.40;99.90
27759;DHT22;15148;48.972;12.794;2023-03-11T16:08:56;2.40;99.90
27759;DHT22;15148;48.972;12.794;2023-03-11T16:13:59;2.50;99.90
27759;DHT22;15148;48.972;12.794;2023-03-11T16:19:00;2.50;99.90
27759;DHT22;15148;48.972;12.794;2023-03-11T16:24:04;2.50;99.90
27759;DHT22;15148;48.972;12.794;2023-03-11T16:29:06;2.50;99.90
27759;DHT22;15148;48.972;12.794;2023-03-11T16:34:19;2.40;99.90
27759;DHT22;15148;48.972;12.794;2023-03-11T16:39:21;2.30;99.90
27759;DHT22;15148;48.972;12.794;2023-03-11T16:44:23;2.30;99.90
27759;DHT22;15148;48.972;12.794;2023-03-11T16:49:25;2.20;99.90
27759;DHT22;15148;48.972;12.794;2023-03-11T16:54:27;2.30;99.90
27759;DHT22;15148;48.972;12.794;2023-03-11T16:59:29;2.30;99.90
27759;DHT22;15148;48.972;12.794;2023-03-11T17:04:30;2.20;99.90
27759;DHT22;15148;48.972;12.794;2023-03-11T17:09:34;2.00;99.90
27759;DHT22;15148;48.972;12.794;2023-03-11T17:14:36;2.00;99.90
27759;DHT22;15148;48.972;12.794;2023-03-11T17:19:38;2.00;99.90
27759;DHT22;15148;48.972;12.794;2023-03-11T17:24:40;2.00;99.90
27759;DHT22;15148;48.972;12.794;2023-03-11T17:29:42;1.90;99.90
27759;DHT22;15148;48.972;12.794;2023-03-11T17:34:43;1.90;99.90
27759;DHT22;15148;48.972;12.794;2023-03-11T17:39:45;2.00;99.90
27759;DHT22;15148;48.972;12.794;2023-03-11T17:44:47;2.00;99.90
27759;DHT22;15148;48.972;12.794;2023-03-11T17:49:52;1.90;99.90
27759;DHT22;15148;48.972;12.794;2023-03-11T17:54:55;1.80;99.90
27759;DHT22;15148;48.972;12.794;2023-03-11T18:00:00;1.80;99.90
27759;DHT22;15148;48.972;12.794;2023-03-11T18:05:06;1.60;99.90
27759;DHT22;15148;48.972;12.794;2023-03-11T18:10:10;1.40;99.90
27759;DHT22;15148;48.972;12.794;2023-03-11T18:15:13;1.40;99.90
27759;DHT22;15148;48.972;12.794;2023-03-11T18:20:19;1.30;99.90
27759;DHT22;15148;48.972;12.794;2023-03-11T18:25:21;1.30;99.90
27759;DHT22;15148;48.972;12.794;2023-03-11T18:30:23;1.30;99.90
27759;DHT22;15148;48.972;12.794;2023-03-11T18:35:25;1.30;99.90
27759;DHT22;15148;48.972;12.794;2023-03-11T18:40:27;1.20;99.90
27759;DHT22;15148;48.972;12.794;2023-03-11T18:45:29;1.20;99.90
27759;DHT22;15148;48.972;12.794;2023-03-11T18:50:31;1.30;99.90
27759;DHT22;15148;48.972;12.794;2023-03-11T18:55:33;1.30;99.90
27759;DHT22;15148;48.972;12.794;2023-03-11T19:00:35;1.30;99.90
27759;DHT22;15148;48.972;12.794;2023-03-11T19:05:38;1.30;99.90
27759;DHT22;15148;48.972;12.794;2023-03-11T19:10:41;1.30;99.90
27759;DHT22;15148;48.972;12.794;2023-03-11T19:15:43;1.20;99.90
27759;DHT22;15148;48.972;12.794;2023-03-11T19:20:58;1.10;99.90
27759;DHT22;15148;48.972;12.794;2023-03-11T19:26:01;1.10;99.90
27759;DHT22;15148;48.972;12.794;2023-03-11T19:31:04;1.10;99.90
27759;DHT22;15148;48.972;12.794;2023-03-11T19:36:06;1.10;99.90
27759;DHT22;15148;48.972;12.794;2023-03-11T19:41:11;1.10;99.90
27759;DHT22;15148;48.972;12.794;2023-03-11T19:46:20;1.10;99.90
27759;DHT22;15148;48.972;12.794;2023-03-11T19:51:23;1.10;99.90
27759;DHT22;15148;48.972;12.794;2023-03-11T19:56:31;0.90;99.90
27759;DHT22;15148;48.972;12.794;2023-03-11T20:01:33;0.80;99.90
27759;DHT22;15148;48.972;12.794;2023-03-11T20:06:34;0.70;99.90
27759;DHT22;15148;48.972;12.794;2023-03-11T20:11:38;0.60;99.90
27759;DHT22;15148;48.972;12.794;2023-03-11T20:16:40;0.70;99.90
27759;DHT22;15148;48.972;12.794;2023-03-11T20:21:42;0.80;99.90
27759;DHT22;15148;48.972;12.794;2023-03-11T20:26:46;0.80;99.90
27759;DHT22;15148;48.972;12.794;2023-03-11T20:31:51;0.80;99.90
27759;DHT22;15148;48.972;12.794;2023-03-11T20:36:53;0.70;99.90
27759;DHT22;15148;48.972;12.794;2023-03-11T20:41:55;0.70;99.90
27759;DHT22;15148;48.972;12.794;2023-03-11T20:46:57;0.70;99.90
27759;DHT22;15148;48.972;12.794;2023-03-11T20:51:59;0.70;99.90
27759;DHT22;15148;48.972;12.794;2023-03-11T20:57:03;0.60;99.90
27759;DHT22;15148;48.972;12.794;2023-03-11T21:02:06;0.60;99.90
27759;DHT22;15148;48.972;12.794;2023-03-11T21:07:09;0.50;99.90
27759;DHT22;15148;48.972;12.794;2023-03-11T21:12:11;0.40;99.90
27759;DHT22;15148;48.972;12.794;2023-03-11T21:17:13;0.40;99.90
27759;DHT22;15148;48.972;12.794;2023-03-11T21:22:16;0.30;99.90
27759;DHT22;15148;48.972;12.794;2023-03-11T21:27:18;0.10;99.90
27759;DHT22;15148;48.972;12.794;2023-03-11T21:32:27;0.10;99.90
27759;DHT22;15148;48.972;12.794;2023-03-11T21:37:29;0.00;99.90
27759;DHT22;15148;48.972;12.794;2023-03-11T21:42:31;0.00;99.90
27759;DHT22;15148;48.972;12.794;2023-03-11T21:47:33;0.00;99.90
27759;DHT22;15148;48.972;12.794;2023-03-11T21:52:37;-0.10;99.90
27759;DHT22;15148;48.972;12.794;2023-03-11T21:57:39;-0.20;99.90
27759;DHT22;15148;48.972;12.794;2023-03-11T22:02:41;-0.30;99.90
27759;DHT22;15148;48.972;12.794;2023-03-11T22:07:43;-0.40;99.90
27759;DHT22;15148;48.972;12.794;2023-03-11T22:12:45;-0.40;99.90
27759;DHT22;15148;48.972;12.794;2023-03-11T22:17:46;-0.50;99.90
27759;DHT22;15148;48.972;12.794;2023-03-11T22:22:48;-0.50;99.90
27759;DHT22;15148;48.972;12.794;2023-03-11T22:27:50;-0.50;99.90
27759;DHT22;15148;48.972;12.794;2023-03-11T22:32:52;-0.50;99.90
27759;DHT22;15148;48.972;12.794;2023-03-11T22:38:19;-0.50;99.90
27759;DHT22;15148;48.972;12.794;2023-03-11T22:43:22;-0.40;99.90
27759;DHT22;15148;48.972;12.794;2023-03-11T22:48:23;-0.40;99.90
27759;DHT22;15148;48.972;12.794;2023-03-11T22:53:25;-0.40;99.90
27759;DHT22;15148;48.972;12.794;2023-03-11T22:58:27;-0.50;99.90
27759;DHT22;15148;48.972;12.794;2023-03-11T23:03:30;-0.60;99.90
27759;DHT22;15148;48.972;12.794;2023-03-11T23:08:33;-0.70;99.90
27759;DHT22;15148;48.972;12.794;2023-03-11T23:13:35;-0.80;99.90
27759;DHT22;15148;48.972;12.794;2023-03-11T23:18:38;-0.70;99.90
27759;DHT22;15148;48.972;12.794;2023-03-11T23:23:40;-0.80;99.90
27759;DHT22;15148;48.972;12.794;2023-03-11T23:28:43;-0.90;99.90
27759;DHT22;15148;48.972;12.794;2023-03-11T23:33:45;-1.00;99.90
27759;DHT22;15148;48.972;12.794;2023-03-11T23:38:47;-1.00;99.90
27759;DHT22;15148;48.972;12.794;2023-03-11T23:43:51;-1.00;99.90
27759;DHT22;15148;48.972;12.794;2023-03-11T23:48:53;-1.00;99.90
27759;DHT22;15148;48.972;12.794;2023-03-11T23:53:55;-1.00;99.90
27759;DHT22;15148;48.972;12.794;2023-03-11T23:58:57;-1.10;99.90
